Strathmore, California
Current Conditions -  °F | °C
As of 5:35 AM on Thursday 18 Dec 2014 (Local Time) from KPTV Reporting Station
Clear Clear  
Wind Chill: 40°   Ceiling: Unl
Heat Index: 43°   Visibility: 10mi
Dew Point: 37°   Wind: 5mph
Humidity: 81%   Direction: 100°E
Pressure: 30.13"   Gusts: NA
Location:  36.15°N, 119.06°W
Report Text: KPTV 181335Z AUTO 10004KT 10SM CLR 06/03 A3013 RMK AO1
Loading
Personal Weather Stations






























Interactive Weather Map New forecast layout! Learn more

10-Day Weather Forecast

Advertisements
Track Severe Weather on mobile